Time;durP1;ratioP1;P1;durP2;ratioP2;P2;SDS_P1;SDS_P2;PMS_P1;PMS_P2;Temp;Humidity;BMP_temperature;BMP_pressure;BME280_temperature;BME280_humidity;BME280_pressure;Samples;Min_cycle;Max_cycle;Signal;HPM_P1;HPM_P2
2022/08/23 00:01:43;;;;;;;0.20;0.20;;;24.80;70.60;;;;;;5044372;28;22226;-43
2022/08/23 00:04:11;;;;;;;0.20;0.20;;;24.80;70.60;;;;;;5042578;28;20041;-42
2022/08/23 00:06:36;;;;;;;0.20;0.20;;;24.80;70.60;;;;;;5045671;28;20504;-43
2022/08/23 00:09:03;;;;;;;0.28;0.28;;;24.70;70.70;;;;;;5040201;28;20416;-43
2022/08/23 00:11:35;;;;;;;0.20;0.20;;;24.70;70.70;;;;;;5043064;28;20053;-43
2022/08/23 00:14:05;;;;;;;0.22;0.20;;;24.70;70.60;;;;;;5041360;28;20043;-43
2022/08/23 00:16:31;;;;;;;0.10;0.10;;;24.70;70.80;;;;;;5045805;28;20041;-43
2022/08/23 00:18:56;;;;;;;0.30;0.30;;;24.70;70.80;;;;;;5043402;28;20120;-44
2022/08/23 00:21:22;;;;;;;0.10;0.10;;;24.70;71.10;;;;;;5042932;28;20507;-42
2022/08/23 00:23:47;;;;;;;0.20;0.20;;;24.70;70.80;;;;;;5042418;28;20049;-42
2022/08/23 00:26:13;;;;;;;0.20;0.20;;;24.70;71.00;;;;;;5042542;28;20140;-42
2022/08/23 00:28:39;;;;;;;0.20;0.20;;;24.70;70.80;;;;;;5041557;28;20045;-43
2022/08/23 00:31:04;;;;;;;0.20;0.20;;;24.70;71.70;;;;;;5039705;28;20034;-42
2022/08/23 00:33:30;;;;;;;0.20;0.20;;;24.70;71.00;;;;;;5041022;28;20045;-43
2022/08/23 00:35:56;;;;;;;0.20;0.20;;;24.70;70.90;;;;;;5042063;28;20519;-43
2022/08/23 00:38:23;;;;;;;0.30;0.30;;;24.70;71.00;;;;;;5044295;28;20037;-48
2022/08/23 00:40:50;;;;;;;0.40;0.20;;;24.70;70.90;;;;;;5042074;28;20096;-45
2022/08/23 00:49:11;;;;;;;0.20;0.20;;;24.60;71.20;;;;;;5028574;28;20055;-39
2022/08/23 00:51:46;;;;;;;0.20;0.20;;;24.60;71.10;;;;;;5016298;28;20080;-39
2022/08/23 00:54:12;;;;;;;0.30;0.25;;;24.60;71.10;;;;;;5039042;28;20060;-41
2022/08/23 00:56:38;;;;;;;0.38;0.38;;;24.60;71.10;;;;;;5027072;28;20071;-50
2022/08/23 00:59:04;;;;;;;0.20;0.20;;;24.60;71.20;;;;;;5011962;28;20133;-43
2022/08/23 01:01:29;;;;;;;0.20;0.20;;;24.60;71.30;;;;;;5031235;28;20033;-43
2022/08/23 01:03:56;;;;;;;0.20;0.20;;;24.60;71.20;;;;;;5026219;28;20052;-51
2022/08/23 01:06:34;;;;;;;0.30;0.30;;;24.60;71.40;;;;;;5027949;28;20033;-46
2022/08/23 01:09:08;;;;;;;0.20;0.20;;;24.60;71.30;;;;;;5007358;28;20052;-42
2022/08/23 01:11:38;;;;;;;0.13;0.13;;;24.60;71.20;;;;;;5023749;28;20041;-40
2022/08/23 01:14:10;;;;;;;0.20;0.20;;;24.60;71.20;;;;;;5021828;28;20049;-39
2022/08/23 01:16:44;;;;;;;0.28;0.25;;;24.60;71.30;;;;;;5024199;28;20042;-45
2022/08/23 01:19:15;;;;;;;0.20;0.20;;;24.60;71.30;;;;;;5008594;28;20048;-43
2022/08/23 01:21:51;;;;;;;0.45;0.28;;;24.50;71.40;;;;;;5010150;28;20044;-55
2022/08/23 01:24:17;;;;;;;0.47;0.20;;;24.50;71.30;;;;;;5009693;28;20526;-45
2022/08/23 01:26:43;;;;;;;0.20;0.20;;;24.60;71.20;;;;;;5024972;28;20049;-48
2022/08/23 01:29:09;;;;;;;0.10;0.10;;;24.60;71.20;;;;;;5006224;28;20057;-43
2022/08/23 01:31:34;;;;;;;0.10;0.10;;;24.60;71.30;;;;;;5043908;28;20037;-51
2022/08/23 01:34:10;;;;;;;0.10;0.10;;;24.50;71.30;;;;;;5021196;28;20083;-43
2022/08/23 01:36:36;;;;;;;0.20;0.20;;;24.60;71.20;;;;;;5043603;28;20326;-39
2022/08/23 01:39:04;;;;;;;0.32;0.32;;;24.60;71.30;;;;;;5042438;28;20575;-46
2022/08/23 01:41:30;;;;;;;0.10;0.10;;;24.50;71.30;;;;;;5038936;28;20036;-47
2022/08/23 01:43:56;;;;;;;0.10;0.10;;;24.60;71.20;;;;;;5042410;28;20045;-39
2022/08/23 01:46:23;;;;;;;0.20;0.20;;;24.50;71.30;;;;;;5025508;28;20072;-41
2022/08/23 01:48:50;;;;;;;0.20;0.20;;;24.50;71.30;;;;;;5042331;28;20499;-49
2022/08/23 01:51:16;;;;;;;0.22;0.22;;;24.50;71.40;;;;;;5026001;28;20048;-43
2022/08/23 01:53:42;;;;;;;0.10;0.10;;;24.50;71.30;;;;;;5040112;28;20103;-42
2022/08/23 01:56:08;;;;;;;0.10;0.10;;;24.50;71.20;;;;;;5037453;28;20510;-44
2022/08/23 01:58:34;;;;;;;0.10;0.10;;;24.50;71.30;;;;;;5041411;28;20032;-46
2022/08/23 02:01:00;;;;;;;0.20;0.20;;;24.50;71.30;;;;;;5040344;28;20450;-45
2022/08/23 02:03:27;;;;;;;0.20;0.20;;;24.50;71.30;;;;;;5039460;28;20057;-44
2022/08/23 02:05:54;;;;;;;0.10;0.10;;;24.50;71.30;;;;;;5035714;28;20114;-42
2022/08/23 02:11:12;;;;;;;0.17;0.17;;;24.50;71.20;;;;;;5037667;28;20072;-39
2022/08/23 02:13:38;;;;;;;0.10;0.10;;;24.50;71.20;;;;;;5041129;28;20431;-38
2022/08/23 02:16:03;;;;;;;0.20;0.20;;;24.50;71.30;;;;;;5022315;28;20511;-45
2022/08/23 02:18:29;;;;;;;0.10;0.10;;;24.40;71.30;;;;;;5039549;28;20149;-44
2022/08/23 02:20:55;;;;;;;0.10;0.10;;;24.40;71.20;;;;;;5036815;28;20562;-44
2022/08/23 02:23:20;;;;;;;0.20;0.20;;;24.50;71.20;;;;;;5026867;28;20052;-39
2022/08/23 02:25:46;;;;;;;0.10;0.10;;;24.40;71.30;;;;;;5041229;28;20562;-44
2022/08/23 02:28:12;;;;;;;0.20;0.20;;;24.40;71.10;;;;;;5034531;28;20215;-42
2022/08/23 02:30:38;;;;;;;0.20;0.20;;;24.40;71.30;;;;;;5040358;28;20037;-45
2022/08/23 02:33:04;;;;;;;0.13;0.13;;;24.40;71.20;;;;;;5042161;28;20198;-40
2022/08/23 02:35:32;;;;;;;0.10;0.10;;;24.50;71.20;;;;;;5036419;28;20127;-42
2022/08/23 02:38:00;;;;;;;0.35;0.30;;;24.50;71.10;;;;;;5040865;28;20059;-43
2022/08/23 02:40:26;;;;;;;0.30;0.30;;;24.50;71.00;;;;;;5024013;28;20049;-44
2022/08/23 02:42:51;;;;;;;0.10;0.10;;;24.40;71.30;;;;;;5041977;28;20041;-40
2022/08/23 02:45:17;;;;;;;0.20;0.20;;;24.40;71.40;;;;;;5039697;28;20499;-39
2022/08/23 02:47:44;;;;;;;0.20;0.20;;;24.40;71.20;;;;;;5038468;28;20049;-39
2022/08/23 02:50:09;;;;;;;0.22;0.22;;;24.40;71.20;;;;;;5039266;28;20114;-39
2022/08/23 02:52:35;;;;;;;0.10;0.10;;;24.40;71.20;;;;;;5038327;28;20427;-42
2022/08/23 02:55:01;;;;;;;0.45;0.10;;;24.40;71.10;;;;;;5040657;28;20060;-40
2022/08/23 02:57:26;;;;;;;0.20;0.20;;;24.40;71.10;;;;;;5039497;28;20049;-41
2022/08/23 02:59:52;;;;;;;0.17;0.15;;;24.40;71.40;;;;;;5038512;28;20049;-45
2022/08/23 03:02:18;;;;;;;0.10;0.10;;;24.40;71.30;;;;;;5039514;28;20104;-47
2022/08/23 03:04:44;;;;;;;0.20;0.20;;;24.40;71.30;;;;;;5040322;28;20526;-47
2022/08/23 03:07:09;;;;;;;0.20;0.20;;;24.40;71.10;;;;;;5040695;28;20120;-52
2022/08/23 03:09:35;;;;;;;0.20;0.20;;;24.40;71.10;;;;;;5039598;28;20104;-39
2022/08/23 03:12:00;;;;;;;0.17;0.17;;;24.40;71.00;;;;;;5036885;28;20503;-40
2022/08/23 03:14:26;;;;;;;0.15;0.15;;;24.40;71.10;;;;;;5038388;28;20072;-41
2022/08/23 03:16:52;;;;;;;0.15;0.10;;;24.40;71.20;;;;;;5038719;28;20497;-46
2022/08/23 03:19:18;;;;;;;0.15;0.10;;;24.40;71.20;;;;;;5039190;28;20084;-44
2022/08/23 03:21:44;;;;;;;0.20;0.20;;;24.40;71.30;;;;;;5041031;28;20761;-40
2022/08/23 03:24:10;;;;;;;0.13;0.13;;;24.40;71.10;;;;;;5037213;28;20408;-42
2022/08/23 03:26:35;;;;;;;0.40;0.20;;;24.40;71.10;;;;;;5041299;28;20049;-42
2022/08/23 03:29:01;;;;;;;0.10;0.10;;;24.40;71.90;;;;;;5039238;28;20064;-39
2022/08/23 03:31:26;;;;;;;0.10;0.10;;;24.40;71.10;;;;;;5036749;28;20515;-39
2022/08/23 03:33:52;;;;;;;0.20;0.20;;;24.40;71.20;;;;;;5041723;28;20049;-39
2022/08/23 03:36:18;;;;;;;0.20;0.20;;;24.40;71.20;;;;;;5039859;28;20063;-38
2022/08/23 03:38:44;;;;;;;0.13;0.13;;;24.40;71.10;;;;;;5045646;28;20041;-40
2022/08/23 03:41:10;;;;;;;0.15;0.15;;;24.40;71.10;;;;;;5040533;28;20102;-44
2022/08/23 03:43:35;;;;;;;0.20;0.20;;;24.40;71.10;;;;;;5040844;28;20045;-48
2022/08/23 03:46:01;;;;;;;0.20;0.20;;;24.40;71.10;;;;;;5042829;28;20107;-40
2022/08/23 03:48:27;;;;;;;0.10;0.10;;;24.40;71.10;;;;;;5044004;28;20041;-39
2022/08/23 03:50:53;;;;;;;0.28;0.28;;;24.40;71.00;;;;;;5039915;28;20047;-41
2022/08/23 03:53:19;;;;;;;0.10;0.10;;;24.40;70.80;;;;;;5037725;28;20042;-42
2022/08/23 03:55:44;;;;;;;0.20;0.20;;;24.40;71.00;;;;;;5043745;28;20041;-39
2022/08/23 03:58:10;;;;;;;0.17;0.17;;;24.40;71.10;;;;;;5028946;28;20045;-41
2022/08/23 04:00:36;;;;;;;0.17;0.17;;;24.40;71.00;;;;;;5043469;28;20476;-45
2022/08/23 04:03:01;;;;;;;0.10;0.10;;;24.40;71.00;;;;;;5037125;28;20099;-51
2022/08/23 04:05:27;;;;;;;0.32;0.32;;;24.40;70.90;;;;;;5043415;28;20049;-42
2022/08/23 04:07:53;;;;;;;0.20;0.20;;;24.40;71.20;;;;;;5042565;28;20461;-47
2022/08/23 04:10:19;;;;;;;0.20;0.20;;;24.30;71.20;;;;;;5042703;28;20068;-44
2022/08/23 04:12:45;;;;;;;0.90;0.20;;;24.30;71.20;;;;;;5043608;28;20056;-42
2022/08/23 04:15:12;;;;;;;0.20;0.20;;;24.30;71.10;;;;;;5041069;28;20037;-39
2022/08/23 04:17:38;;;;;;;0.20;0.20;;;24.40;71.10;;;;;;5038618;28;20447;-40
2022/08/23 04:20:04;;;;;;;0.20;0.20;;;24.40;71.10;;;;;;5039585;28;20046;-44
2022/08/23 04:22:29;;;;;;;0.20;0.20;;;24.30;71.00;;;;;;5044703;28;20080;-45
2022/08/23 04:24:55;;;;;;;0.20;0.20;;;24.30;71.30;;;;;;5043755;28;20060;-47
2022/08/23 04:27:21;;;;;;;0.10;0.10;;;24.30;71.20;;;;;;5041880;28;20057;-41
2022/08/23 04:29:47;;;;;;;0.20;0.20;;;24.30;70.90;;;;;;5040456;28;20051;-44
2022/08/23 04:32:14;;;;;;;0.10;0.10;;;24.40;71.00;;;;;;5040256;28;20131;-42
2022/08/23 04:34:41;;;;;;;0.20;0.20;;;24.40;71.00;;;;;;5041706;28;20466;-39
2022/08/23 04:37:07;;;;;;;0.20;0.20;;;24.30;70.90;;;;;;5041920;28;20082;-40
2022/08/23 04:42:16;;;;;;;0.20;0.20;;;24.30;71.10;;;;;;5042295;28;20045;-39
2022/08/23 04:42:22;;;;;;;0.20;0.20;;;24.40;71.00;;;;;;5036850;28;20057;-38
2022/08/23 04:44:47;;;;;;;0.20;0.20;;;24.40;70.90;;;;;;5042541;28;20087;-42
2022/08/23 04:47:13;;;;;;;0.15;0.15;;;24.40;70.90;;;;;;5041424;28;20064;-39
2022/08/23 04:49:39;;;;;;;0.10;0.10;;;24.40;70.80;;;;;;5044728;28;20116;-39
2022/08/23 04:52:04;;;;;;;0.13;0.13;;;24.40;71.00;;;;;;5039264;28;20136;-40
2022/08/23 04:54:30;;;;;;;1.40;0.25;;;24.40;71.10;;;;;;5043607;28;20045;-39
2022/08/23 04:56:55;;;;;;;0.20;0.20;;;24.30;71.00;;;;;;5043137;28;20072;-39
2022/08/23 04:59:21;;;;;;;0.20;0.20;;;24.30;71.10;;;;;;5041369;28;20435;-44
2022/08/23 05:01:47;;;;;;;0.20;0.20;;;24.30;71.00;;;;;;5040515;28;20033;-39
2022/08/23 05:04:14;;;;;;;0.40;0.40;;;24.30;71.00;;;;;;5042444;28;20550;-39
2022/08/23 05:06:39;;;;;;;0.30;0.30;;;24.30;70.90;;;;;;5042153;28;20056;-40
2022/08/23 05:09:05;;;;;;;0.17;0.17;;;24.30;70.90;;;;;;5038733;28;20072;-43
2022/08/23 05:11:31;;;;;;;0.20;0.20;;;24.30;71.00;;;;;;5041818;28;20139;-41
2022/08/23 05:13:56;;;;;;;0.35;0.20;;;24.30;70.90;;;;;;5039879;28;20045;-39
2022/08/23 05:16:22;;;;;;;0.20;0.20;;;24.30;71.20;;;;;;5038684;28;20064;-39
2022/08/23 05:18:47;;;;;;;0.80;0.20;;;24.20;71.40;;;;;;5041985;28;20065;-43
2022/08/23 05:21:17;;;;;;;0.20;0.20;;;24.20;71.40;;;;;;5044669;28;20044;-39
2022/08/23 05:23:43;;;;;;;0.73;0.20;;;24.10;71.60;;;;;;5037580;28;20480;-41
2022/08/23 05:26:10;;;;;;;0.25;0.20;;;24.10;71.70;;;;;;5038547;28;20095;-47
2022/08/23 05:28:38;;;;;;;2.50;0.20;;;24.20;71.80;;;;;;5035097;28;20624;-49
2022/08/23 05:31:07;;;;;;;0.20;0.20;;;24.30;71.10;;;;;;5042365;28;20049;-48
2022/08/23 05:33:33;;;;;;;0.20;0.20;;;24.20;71.40;;;;;;5042408;28;20040;-44
2022/08/23 05:36:00;;;;;;;0.22;0.22;;;24.10;72.00;;;;;;5041798;28;20064;-48
2022/08/23 05:38:26;;;;;;;0.20;0.20;;;24.10;72.30;;;;;;5038897;28;20049;-51
2022/08/23 05:40:53;;;;;;;0.30;0.30;;;24.10;72.50;;;;;;5040010;28;20500;-48
2022/08/23 05:43:18;;;;;;;0.20;0.20;;;24.10;72.60;;;;;;5039687;28;20073;-47
2022/08/23 05:45:44;;;;;;;0.20;0.20;;;24.10;73.40;;;;;;5039518;28;20129;-46
2022/08/23 05:48:11;;;;;;;0.43;0.40;;;24.10;72.70;;;;;;5042274;28;20049;-48
2022/08/23 05:50:37;;;;;;;0.20;0.20;;;24.10;72.90;;;;;;5041290;28;20208;-47
2022/08/23 05:53:02;;;;;;;0.40;0.40;;;24.10;72.80;;;;;;5042258;28;20498;-51
2022/08/23 05:55:28;;;;;;;0.50;0.50;;;24.10;72.90;;;;;;5036470;28;20033;-50
2022/08/23 05:57:53;;;;;;;0.40;0.40;;;24.20;72.70;;;;;;5040739;28;20060;-48
2022/08/23 06:00:19;;;;;;;0.30;0.30;;;24.10;73.00;;;;;;5041979;28;21051;-52
2022/08/23 06:02:46;;;;;;;0.30;0.30;;;24.10;73.20;;;;;;5038926;28;20032;-49
2022/08/23 06:05:12;;;;;;;0.22;0.22;;;24.10;73.30;;;;;;5040635;28;20048;-47
2022/08/23 06:07:38;;;;;;;0.63;0.40;;;24.00;73.20;;;;;;5039473;28;20060;-52
2022/08/23 06:10:04;;;;;;;0.30;0.30;;;24.00;73.50;;;;;;5037108;28;20128;-52
2022/08/23 06:12:30;;;;;;;0.20;0.20;;;24.10;73.30;;;;;;5019021;28;20041;-48
2022/08/23 06:14:56;;;;;;;0.35;0.35;;;24.00;73.40;;;;;;5038085;28;20136;-49
2022/08/23 06:17:22;;;;;;;0.45;0.30;;;24.00;73.30;;;;;;5041302;28;20468;-54
2022/08/23 06:19:47;;;;;;;0.32;0.32;;;24.00;73.40;;;;;;5042398;28;20767;-53
2022/08/23 06:22:13;;;;;;;0.30;0.30;;;24.10;73.10;;;;;;5038319;28;20037;-49
2022/08/23 06:24:38;;;;;;;0.30;0.30;;;24.20;72.60;;;;;;5038137;28;20052;-47
2022/08/23 06:27:04;;;;;;;0.20;0.20;;;24.30;72.50;;;;;;5040177;28;20040;-50
2022/08/23 06:29:30;;;;;;;0.30;0.30;;;24.20;72.70;;;;;;5041170;28;20462;-50
2022/08/23 06:31:55;;;;;;;0.43;0.43;;;24.30;72.10;;;;;;5042243;28;20056;-56
2022/08/23 06:34:28;;;;;;;0.35;0.35;;;24.20;73.00;;;;;;5040961;28;20057;-52
2022/08/23 06:36:55;;;;;;;0.32;0.30;;;24.10;73.30;;;;;;5039483;28;20410;-53
2022/08/23 06:39:22;;;;;;;0.47;0.47;;;24.00;73.50;;;;;;5014131;28;20053;-57
2022/08/23 06:41:48;;;;;;;0.73;0.30;;;24.00;74.00;;;;;;4998165;28;20542;-55
2022/08/23 06:44:14;;;;;;;1.42;0.40;;;24.10;73.60;;;;;;4997459;28;20054;-58
2022/08/23 07:01:40;;;;;;;1.23;0.60;;;24.30;71.80;;;;;;5056565;27;20460;-34
2022/08/23 07:04:07;;;;;;;0.50;0.50;;;24.30;74.10;;;;;;5059183;28;20021;-35
2022/08/23 07:06:33;;;;;;;1.17;0.50;;;24.40;73.30;;;;;;5065783;27;20017;-35
2022/08/23 07:08:58;;;;;;;0.47;0.40;;;24.40;73.20;;;;;;5063251;27;20039;-36
2022/08/23 07:11:24;;;;;;;0.30;0.30;;;24.40;73.60;;;;;;5063079;28;20069;-36
2022/08/23 07:13:51;;;;;;;0.65;0.30;;;24.40;72.60;;;;;;5065415;28;20021;-36
2022/08/23 07:16:17;;;;;;;1.17;0.40;;;24.50;72.60;;;;;;5083169;27;20011;-32
2022/08/23 07:18:44;;;;;;;0.47;0.47;;;24.70;72.20;;;;;;5087349;27;20371;-35
2022/08/23 07:21:11;;;;;;;0.35;0.30;;;25.20;71.30;;;;;;5062947;28;20021;-36
2022/08/23 07:23:37;;;;;;;0.30;0.30;;;25.60;69.60;;;;;;5064292;27;20029;-34
2022/08/23 07:26:06;;;;;;;0.60;0.40;;;25.70;68.60;;;;;;5085391;27;20013;-36
2022/08/23 07:28:32;;;;;;;0.65;0.30;;;25.20;70.00;;;;;;5073935;27;20038;-36
2022/08/23 07:31:29;;;;;;;0.22;0.22;;;24.90;71.10;;;;;;5084464;27;20559;-34
2022/08/23 07:33:55;;;;;;;0.30;0.30;;;24.80;73.20;;;;;;5068064;27;20046;-34
2022/08/23 07:36:21;;;;;;;0.10;0.10;;;24.70;72.80;;;;;;5074221;27;20025;-33
2022/08/23 07:38:47;;;;;;;0.20;0.20;;;24.60;73.00;;;;;;5085741;27;20112;-32
2022/08/23 07:41:13;;;;;;;0.20;0.20;;;24.60;73.00;;;;;;5086221;27;20109;-35
2022/08/23 07:43:39;;;;;;;1.40;0.25;;;24.60;73.20;;;;;;5098270;27;20418;-36
2022/08/23 07:46:05;;;;;;;1.95;0.20;;;24.60;72.50;;;;;;5090395;27;20025;-36
2022/08/23 07:48:31;;;;;;;0.20;0.20;;;24.60;72.90;;;;;;5076741;27;20020;-33
2022/08/23 07:50:58;;;;;;;0.50;0.25;;;24.60;73.60;;;;;;5085980;27;20108;-36
2022/08/23 07:53:24;;;;;;;0.32;0.30;;;24.60;72.70;;;;;;5084112;27;20019;-35
2022/08/23 07:55:51;;;;;;;0.90;0.30;;;24.60;72.90;;;;;;5110842;27;20445;-32
2022/08/23 07:58:16;;;;;;;0.40;0.30;;;24.70;72.80;;;;;;4735376;27;10000312;-36
2022/08/23 08:00:42;;;;;;;0.20;0.20;;;24.70;72.50;;;;;;5053438;27;20049;-33
2022/08/23 08:03:09;;;;;;;1.63;0.30;;;24.70;72.70;;;;;;5042654;28;20085;-31
2022/08/23 08:05:35;;;;;;;1.63;0.32;;;24.70;72.20;;;;;;5041794;28;20021;-33
2022/08/23 08:08:01;;;;;;;1.65;0.30;;;24.70;72.60;;;;;;5047075;28;20073;-38
2022/08/23 08:10:26;;;;;;;0.20;0.20;;;24.60;72.50;;;;;;5041908;28;20086;-33
2022/08/23 08:12:52;;;;;;;0.75;0.30;;;24.60;72.60;;;;;;5043775;28;20029;-32
2022/08/23 08:15:18;;;;;;;1.45;0.30;;;24.60;72.60;;;;;;5048873;27;20100;-37
2022/08/23 08:17:47;;;;;;;0.40;0.22;;;24.60;72.60;;;;;;5043737;28;20543;-34
2022/08/23 08:20:14;;;;;;;0.55;0.20;;;24.60;72.80;;;;;;5042208;28;20073;-33
2022/08/23 08:22:40;;;;;;;0.50;0.30;;;24.60;72.60;;;;;;5041592;28;20029;-38
2022/08/23 08:25:07;;;;;;;0.70;0.30;;;24.60;72.10;;;;;;5039924;28;20028;-38
2022/08/23 08:27:32;;;;;;;0.20;0.20;;;24.70;72.10;;;;;;5040384;28;20029;-33
2022/08/23 08:29:58;;;;;;;0.82;0.60;;;24.70;72.20;;;;;;5041715;28;20044;-35
2022/08/23 08:32:24;;;;;;;1.58;0.15;;;24.60;72.10;;;;;;5050630;27;20069;-39
2022/08/23 08:34:49;;;;;;;0.20;0.20;;;24.60;72.30;;;;;;5044836;28;20029;-37
2022/08/23 08:37:15;;;;;;;0.77;0.25;;;24.60;72.50;;;;;;5039601;28;20029;-36
2022/08/23 08:39:44;;;;;;;0.22;0.22;;;24.60;72.50;;;;;;5040345;28;20029;-36
2022/08/23 08:42:12;;;;;;;0.20;0.20;;;24.60;72.60;;;;;;5039769;28;20021;-33
2022/08/23 08:44:48;;;;;;;0.20;0.20;;;24.60;72.80;;;;;;5037871;28;20485;-36
2022/08/23 08:47:36;;;;;;;0.60;0.10;;;24.60;72.60;;;;;;5040534;28;20090;-36
2022/08/23 08:50:04;;;;;;;0.82;0.30;;;24.60;72.60;;;;;;5048349;28;20037;-33
2022/08/23 08:52:33;;;;;;;0.20;0.20;;;24.50;72.70;;;;;;5039819;28;20025;-33
2022/08/23 08:55:05;;;;;;;0.30;0.30;;;24.50;72.60;;;;;;5021990;28;20025;-35
2022/08/23 08:57:35;;;;;;;0.13;0.13;;;24.50;72.60;;;;;;5047403;27;20021;-33
2022/08/23 09:00:04;;;;;;;0.95;0.20;;;24.60;73.70;;;;;;5039560;28;20041;-33
2022/08/23 09:02:33;;;;;;;0.40;0.20;;;24.60;72.90;;;;;;5047284;28;20476;-36
2022/08/23 09:05:05;;;;;;;0.20;0.20;;;24.50;72.90;;;;;;5043290;28;20119;-35
2022/08/23 09:08:07;;;;;;;0.15;0.15;;;24.50;73.00;;;;;;5043878;28;20028;-38
2022/08/23 09:10:48;;;;;;;0.30;0.30;;;24.50;72.70;;;;;;5041896;28;20045;-36
2022/08/23 09:13:34;;;;;;;0.20;0.20;;;24.50;72.80;;;;;;5037660;28;20033;-38
2022/08/23 09:16:21;;;;;;;0.20;0.20;;;24.60;72.80;;;;;;5035522;28;20517;-34
2022/08/23 09:18:46;;;;;;;0.20;0.20;;;24.50;72.70;;;;;;5034289;28;20029;-35
2022/08/23 09:21:12;;;;;;;0.10;0.10;;;24.60;72.70;;;;;;5045208;27;20036;-30
2022/08/23 09:23:39;;;;;;;0.20;0.20;;;24.60;72.80;;;;;;5044216;28;20021;-37
2022/08/23 09:26:16;;;;;;;0.10;0.10;;;24.60;72.70;;;;;;5044999;28;20077;-36
2022/08/23 09:28:41;;;;;;;1.17;0.20;;;24.60;72.80;;;;;;5041164;28;20115;-35
2022/08/23 09:31:07;;;;;;;0.10;0.10;;;24.60;72.90;;;;;;5034801;28;20430;-35
2022/08/23 09:33:37;;;;;;;0.40;0.30;;;24.60;72.80;;;;;;5033025;28;20030;-33
2022/08/23 09:36:23;;;;;;;1.98;0.52;;;24.60;73.00;;;;;;5041094;28;20077;-36
2022/08/23 09:38:56;;;;;;;0.20;0.20;;;24.60;73.10;;;;;;5039650;28;20025;-33
2022/08/23 09:41:27;;;;;;;0.20;0.20;;;24.60;73.10;;;;;;5040863;28;20419;-34
2022/08/23 09:43:54;;;;;;;0.10;0.10;;;24.60;73.20;;;;;;5041702;28;20032;-38
2022/08/23 09:46:34;;;;;;;0.20;0.20;;;24.60;73.00;;;;;;5040642;28;20104;-34
2022/08/23 09:49:23;;;;;;;0.13;0.13;;;24.60;73.10;;;;;;5048208;27;20411;-36
2022/08/23 09:51:49;;;;;;;0.20;0.10;;;24.60;72.40;;;;;;5040031;27;20087;-33
2022/08/23 09:54:27;;;;;;;0.17;0.13;;;24.60;73.10;;;;;;5051939;27;20481;-32
2022/08/23 09:56:56;;;;;;;1.65;0.30;;;24.60;73.70;;;;;;5036702;28;20029;-35
2022/08/23 09:59:40;;;;;;;0.20;0.20;;;24.60;72.60;;;;;;5062739;27;20512;-32
2022/08/23 10:02:12;;;;;;;0.17;0.10;;;24.60;72.80;;;;;;5028053;28;20062;-36
2022/08/23 10:04:46;;;;;;;0.25;0.25;;;24.60;72.50;;;;;;5045371;28;20025;-34
2022/08/23 10:07:27;;;;;;;0.17;0.10;;;24.70;72.40;;;;;;5032588;28;20040;-36
2022/08/23 10:09:53;;;;;;;0.10;0.10;;;24.70;72.60;;;;;;5062894;27;20037;-33
2022/08/23 10:12:18;;;;;;;0.30;0.20;;;24.70;72.50;;;;;;5043618;27;20047;-34
2022/08/23 10:14:44;;;;;;;0.30;0.20;;;24.70;72.40;;;;;;5044928;27;20021;-36
2022/08/23 10:17:32;;;;;;;0.10;0.10;;;24.70;72.70;;;;;;5044459;28;20903;-37
2022/08/23 10:20:17;;;;;;;0.20;0.20;;;24.70;73.00;;;;;;5047082;27;22095;-35
2022/08/23 10:22:47;;;;;;;;;;;24.70;73.30;;;;;;5044505;27;20440;-35
2022/08/23 10:25:19;;;;;;;0.22;0.20;;;24.60;73.40;;;;;;5043483;27;19995;-34
2022/08/23 10:31:17;;;;;;;0.38;0.10;;;24.60;74.00;;;;;;5042660;28;20032;-33
2022/08/23 10:33:49;;;;;;;1.13;0.20;;;24.60;74.00;;;;;;5041967;27;20033;-35
2022/08/23 10:36:32;;;;;;;0.20;0.20;;;24.60;73.80;;;;;;5077178;27;20015;-32
2022/08/23 10:39:03;;;;;;;0.33;0.30;;;24.60;73.30;;;;;;5041313;28;20025;-34
2022/08/23 10:42:05;;;;;;;0.20;0.20;;;24.60;73.30;;;;;;5035767;28;20025;-32
2022/08/23 10:44:58;;;;;;;0.22;0.22;;;24.60;73.20;;;;;;5005895;28;20602;-35
2022/08/23 10:47:26;;;;;;;1.52;0.40;;;24.60;73.20;;;;;;5024176;28;20045;-35
2022/08/23 10:49:52;;;;;;;0.50;0.30;;;24.60;73.00;;;;;;5022407;28;20038;-37
2022/08/23 10:52:28;;;;;;;1.75;0.20;;;24.70;72.90;;;;;;5035091;28;20024;-32
2022/08/23 10:54:59;;;;;;;1.17;0.43;;;24.60;72.70;;;;;;4998543;28;20515;-37
2022/08/23 10:57:36;;;;;;;0.47;0.47;;;24.70;72.60;;;;;;5023386;27;20077;-33
2022/08/23 11:00:07;;;;;;;0.95;0.55;;;24.70;72.60;;;;;;4993196;28;20112;-33
2022/08/23 11:02:41;;;;;;;0.60;0.60;;;24.60;72.70;;;;;;5088323;28;20042;-34
2022/08/23 11:05:16;;;;;;;0.50;0.50;;;24.60;72.60;;;;;;5020080;28;20578;-35
2022/08/23 11:07:41;;;;;;;1.65;0.80;;;24.70;72.70;;;;;;5032001;28;20034;-37
2022/08/23 11:10:07;;;;;;;0.68;0.68;;;24.70;72.50;;;;;;5014607;28;20087;-37
2022/08/23 11:12:35;;;;;;;1.05;0.88;;;24.70;72.40;;;;;;5041655;28;20057;-34
2022/08/23 11:15:11;;;;;;;1.00;0.80;;;24.70;72.30;;;;;;5027811;28;20032;-36
2022/08/23 11:17:58;;;;;;;1.40;0.85;;;24.70;72.30;;;;;;5038175;28;20056;-35
2022/08/23 11:21:02;;;;;;;0.60;0.60;;;24.70;72.30;;;;;;5038986;27;20056;-38
2022/08/23 11:23:46;;;;;;;1.40;0.80;;;24.70;72.10;;;;;;5086501;27;20044;-35
2022/08/23 11:26:21;;;;;;;1.45;0.98;;;24.70;71.90;;;;;;5051479;27;20104;-33
2022/08/23 11:28:47;;;;;;;1.00;0.70;;;24.70;71.80;;;;;;5051300;27;20033;-34
2022/08/23 11:31:29;;;;;;;0.43;0.43;;;24.70;72.20;;;;;;5039664;27;20427;-33
2022/08/23 11:34:00;;;;;;;1.05;0.60;;;24.70;72.40;;;;;;5039576;27;20021;-42
2022/08/23 11:36:26;;;;;;;0.75;0.60;;;24.80;71.60;;;;;;5036260;27;20025;-34
2022/08/23 11:38:51;;;;;;;0.47;0.40;;;24.70;72.40;;;;;;5047139;28;20036;-33
2022/08/23 11:41:17;;;;;;;0.45;0.43;;;24.70;72.30;;;;;;5043574;28;20036;-35
2022/08/23 11:43:44;;;;;;;0.70;0.70;;;24.70;72.10;;;;;;5034973;27;20022;-34
2022/08/23 11:46:21;;;;;;;0.50;0.40;;;24.70;71.90;;;;;;5040428;28;20078;-35
2022/08/23 11:49:29;;;;;;;0.55;0.40;;;24.70;71.80;;;;;;5047892;28;20090;-34
2022/08/23 11:52:10;;;;;;;0.52;0.50;;;24.80;71.80;;;;;;5046424;28;20112;-32
2022/08/23 11:54:54;;;;;;;2.20;0.60;;;24.70;72.40;;;;;;5044456;28;20083;-32
2022/08/23 11:57:57;;;;;;;0.75;0.40;;;24.60;72.50;;;;;;5047973;27;20028;-33
2022/08/23 12:00:41;;;;;;;0.80;0.60;;;24.70;72.20;;;;;;5043306;28;20407;-38
2022/08/23 12:03:33;;;;;;;0.65;0.40;;;24.70;72.10;;;;;;5049225;28;20097;-34
2022/08/23 12:06:03;;;;;;;0.40;0.38;;;24.80;71.80;;;;;;5021443;28;20074;-34
2022/08/23 12:08:31;;;;;;;1.05;0.30;;;24.70;72.00;;;;;;5046700;28;20043;-36
2022/08/23 12:11:00;;;;;;;0.60;0.32;;;24.70;72.80;;;;;;5046897;28;20180;-30
2022/08/23 12:13:31;;;;;;;0.35;0.30;;;24.70;72.20;;;;;;5045203;27;20523;-36
2022/08/23 12:16:03;;;;;;;1.02;0.43;;;24.70;73.10;;;;;;5047469;27;20108;-32
2022/08/23 12:18:29;;;;;;;1.13;0.40;;;24.70;71.70;;;;;;5038558;27;20026;-38
2022/08/23 12:20:59;;;;;;;0.73;0.43;;;24.70;71.60;;;;;;5047481;27;20035;-33
2022/08/23 12:23:24;;;;;;;0.85;0.50;;;24.70;71.60;;;;;;5029970;27;20115;-33
2022/08/23 12:26:03;;;;;;;1.05;0.68;;;24.70;71.30;;;;;;5046075;27;20107;-32
2022/08/23 12:28:48;;;;;;;0.93;0.43;;;24.80;71.20;;;;;;5034589;27;20034;-34
2022/08/23 12:31:39;;;;;;;0.88;0.40;;;24.70;71.50;;;;;;5046177;28;20101;-33
2022/08/23 12:34:21;;;;;;;1.40;0.52;;;24.80;71.40;;;;;;5038167;28;20035;-36
2022/08/23 12:37:09;;;;;;;0.28;0.28;;;24.80;71.40;;;;;;5043669;28;20021;-37
2022/08/23 12:39:45;;;;;;;0.57;0.57;;;24.80;71.30;;;;;;5043971;28;20110;-31
2022/08/23 12:42:17;;;;;;;0.30;0.25;;;24.70;71.20;;;;;;5048688;27;20028;-31
2022/08/23 12:44:43;;;;;;;0.85;0.47;;;24.80;71.00;;;;;;5046611;27;20025;-33
2022/08/23 12:47:19;;;;;;;1.40;0.50;;;24.80;70.90;;;;;;5051063;28;20111;-34
2022/08/23 12:50:08;;;;;;;0.50;0.50;;;24.70;71.30;;;;;;5043294;28;20052;-29
2022/08/23 12:52:34;;;;;;;1.15;0.43;;;24.80;71.40;;;;;;5046750;28;20410;-36
2022/08/23 12:55:00;;;;;;;0.47;0.40;;;24.70;71.50;;;;;;5041181;28;20033;-33
2022/08/23 12:57:56;;;;;;;0.50;0.40;;;24.70;71.40;;;;;;5052654;27;20025;-27
2022/08/23 13:00:30;;;;;;;0.52;0.50;;;24.80;71.40;;;;;;4339780;27;10000731;-22
2022/08/23 13:03:18;;;;;;;0.53;0.33;;;24.80;71.10;;;;;;5036568;27;20035;-22
2022/08/23 13:05:49;;;;;;;0.88;0.60;;;24.70;71.50;;;;;;5036144;28;20029;-28
2022/08/23 13:08:17;;;;;;;0.63;0.30;;;24.80;71.00;;;;;;5033550;28;20396;-22
2022/08/23 13:10:43;;;;;;;0.47;0.47;;;24.70;72.40;;;;;;5039230;28;20031;-38
2022/08/23 13:13:10;;;;;;;1.58;0.30;;;24.70;71.90;;;;;;5042525;28;20789;-39
2022/08/23 13:15:44;;;;;;;0.55;0.50;;;24.70;71.30;;;;;;5038502;28;20029;-39
2022/08/23 13:18:09;;;;;;;0.57;0.45;;;24.70;71.40;;;;;;5039511;28;20056;-28
2022/08/23 13:20:35;;;;;;;1.13;0.30;;;24.80;71.60;;;;;;5041556;28;20056;-31
2022/08/23 13:23:03;;;;;;;0.73;0.43;;;24.80;72.20;;;;;;5041025;28;20029;-22
2022/08/23 13:25:34;;;;;;;0.30;0.25;;;24.80;71.60;;;;;;5044100;28;20722;-32
2022/08/23 13:28:03;;;;;;;0.52;0.35;;;24.80;71.40;;;;;;5039349;28;20471;-30